This is the latest recevied weather packets stored in our database for station/object WA4IKQ. If no packets are shown the sender has not sent any weather packets the latest 1 day(s).
| Time | Temp. | Humidity | Pressure | Rain* | Wind** | Luminosity | Snow |
|---|---|---|---|---|---|---|---|
| 1778086977 | 31.67° C | 43% | 1017 hPa | 0 mm | 2.68 m/s, 177° | - | - |
| 1778086931 | 31.67° C | 43% | 1017 hPa | 0 mm | 2.68 m/s, 177° | - | - |
| 1778086848 | 31.67° C | 43% | 1017 hPa | 0 mm | 2.68 m/s, 177° | - | - |
| 1778086601 | 31.67° C | 44% | 1017 hPa | 0 mm | 3.58 m/s, 170° | - | - |
| 1778086355 | 31.11° C | 44% | 1017.1 hPa | 0 mm | 2.24 m/s, 193° | - | - |
| 1778085349 | 31.11° C | 45% | 1017.3 hPa | 0 mm | 0 m/s | - | - |
| 1778085047 | 31.11° C | 45% | 1017.3 hPa | 0 mm | 0.89 m/s, 240° | - | - |
| 1778084199 | 30.56° C | 46% | 1017.4 hPa | 0 mm | 1.34 m/s, 156° | - | - |
| 1778082652 | 30.56° C | 47% | 1017.4 hPa | 0 mm | 3.58 m/s, 142° | - | - |
| 1778082160 | 30° C | 48% | 1017.4 hPa | 0 mm | 0.45 m/s, 55° | - | - |
| 1778082048 | 30° C | 48% | 1017.4 hPa | 0 mm | 0.45 m/s, 55° | - | - |
| 1778081806 | 30° C | 49% | 1017.4 hPa | 0 mm | 1.34 m/s, 91° | - | - |
| 1778080601 | 29.44° C | 52% | 1017.3 hPa | 0 mm | 2.24 m/s, 80° | - | - |
| 1778080349 | 29.44° C | 53% | 1017.4 hPa | 0 mm | 2.24 m/s, 120° | - | - |
| 1778079708 | 29.44° C | 55% | 1017.4 hPa | 0 mm | 0 m/s | - | - |
| 1778079443 | 28.89° C | 55% | 1017.4 hPa | 0 mm | 3.13 m/s, 170° | - | - |
| 1778079343 | 28.89° C | 55% | 1017.4 hPa | 0 mm | 3.13 m/s, 170° | - | - |
| 1778079132 | 28.89° C | 57% | 1017.4 hPa | 0 mm | 1.34 m/s, 155° | - | - |
| 1778078584 | 28.33° C | 60% | 1017.3 hPa | 0 mm | 0 m/s | - | - |
| 1778078292 | 28.33° C | 61% | 1017.3 hPa | 0 mm | 2.24 m/s, 89° | - | - |
| 1778077242 | 27.22° C | 65% | 1017.3 hPa | 0 mm | 3.13 m/s, 108° | - | - |
| 1778077074 | 27.22° C | 66% | 1017.2 hPa | 0 mm | 0.89 m/s, 215° | - | - |
| 1778076783 | 27.22° C | 67% | 1017.2 hPa | 0 mm | 1.79 m/s, 108° | - | - |
| 1778076643 | 27.22° C | 67% | 1017.2 hPa | 0 mm | 1.79 m/s, 108° | - | - |
| 1778075890 | 26.67° C | 72% | 1017.1 hPa | 0 mm | 2.68 m/s, 141° | - | - |
* Rain latest hour (hover to see other rain measurements)
** Current wind speed in m/s (hover to see current wind gust speed)